aviador You're here:

MMSD Decoded Metar

SAN JOSE DEL CABO in MEXICO
Report Time2018-07-20 15:43:00
UTC Time2018-07-20 16:44:22
Flight Rules vfr VFR
WindCalm
Visibility9999 m
Phenomena:N/A
Clouds:Broken 120 Hf
Expected CloudBase > 4,800 ft AGL from Temp-Dew spread
Ceiling12,000 ft
Temp29°C (ISA +15)
Dew Point17°C (48% RH)
Heat Index29.4°C
QNH1013 hPa
Density Alt2,306 ft
Elevation358 ft
Report Wrong Elevation
Raw Report
METAR MMSD 201543Z 00000KT 12SM BKN120 29/17 A2991 RMK 8/020 CI=

Extra information for MMSD:More info

Metar Taf Metar & Taf Last 4 Metars F.Rules Stats Wind Profile Meteogram Temp Stats Airport Information Weather charts Add Link Nearby VenuesMetar ALERT Operation Metar Decoded Social comments